createdAt,value
2019-02-08T00:00:11.456Z,8.01
2019-02-08T00:02:37.718Z,7.91
2019-02-08T00:05:05.443Z,7.85
2019-02-08T00:07:32.018Z,8.13
2019-02-08T00:09:58.174Z,8.09
2019-02-08T00:12:24.454Z,8.06
2019-02-08T00:14:50.775Z,8.08
2019-02-08T00:17:17.043Z,8.09
2019-02-08T00:19:43.218Z,8.24
2019-02-08T00:22:10.220Z,7.99
2019-02-08T00:24:36.411Z,7.99
2019-02-08T00:27:03.579Z,7.82
2019-02-08T00:29:29.790Z,7.70
2019-02-08T00:31:56.069Z,7.73
2019-02-08T00:34:22.221Z,7.62
2019-02-08T00:36:48.429Z,7.62
2019-02-08T00:39:14.695Z,7.75
2019-02-08T00:41:41.302Z,7.92
2019-02-08T00:44:08.794Z,7.89
2019-02-08T00:46:34.947Z,7.90
2019-02-08T00:49:01.211Z,7.77
2019-02-08T00:51:27.511Z,7.74
2019-02-08T00:53:53.789Z,7.88
2019-02-08T00:56:20.057Z,7.88
2019-02-08T00:58:46.268Z,7.85
2019-02-08T01:01:12.427Z,7.93
2019-02-08T01:03:38.698Z,8.04
2019-02-08T01:06:05.504Z,8.13
2019-02-08T01:08:31.658Z,8.07
2019-02-08T01:10:57.918Z,8.02
2019-02-08T01:13:24.219Z,8.00
2019-02-08T01:15:50.479Z,8.04
2019-02-08T01:18:16.653Z,7.92
2019-02-08T01:20:42.948Z,8.00
2019-02-08T01:23:09.122Z,8.17
2019-02-08T01:25:35.466Z,8.13
2019-02-08T01:28:01.668Z,8.04
2019-02-08T01:30:30.668Z,8.04
2019-02-08T01:32:56.926Z,8.01
2019-02-08T01:35:23.515Z,7.85
2019-02-08T01:37:49.888Z,7.80
2019-02-08T01:40:22.948Z,7.48
2019-02-08T01:42:49.150Z,7.26
2019-02-08T01:45:21.314Z,7.24
2019-02-08T01:47:47.478Z,7.06
2019-02-08T01:50:16.792Z,6.89
2019-02-08T01:52:42.940Z,6.77
2019-02-08T01:55:09.403Z,6.65
2019-02-08T01:57:37.852Z,6.55
2019-02-08T02:00:28.567Z,6.47
2019-02-08T02:02:55.316Z,6.61
2019-02-08T02:05:22.186Z,6.92
2019-02-08T02:07:48.450Z,6.91
2019-02-08T02:10:34.120Z,6.95
2019-02-08T02:13:00.602Z,7.02
2019-02-08T02:15:27.165Z,6.97
2019-02-08T02:17:53.378Z,6.56
2019-02-08T02:20:28.169Z,6.74
2019-02-08T02:22:54.322Z,6.59
2019-02-08T02:25:21.038Z,6.48
2019-02-08T02:27:47.322Z,6.52
2019-02-08T02:30:23.094Z,6.44
2019-02-08T02:32:49.353Z,6.52
2019-02-08T02:35:15.625Z,6.55
2019-02-08T02:37:41.908Z,6.46
2019-02-08T02:40:16.463Z,6.47
2019-02-08T02:42:42.632Z,6.98
2019-02-08T02:45:50.439Z,7.24
2019-02-08T02:48:16.613Z,7.32
2019-02-08T02:50:42.790Z,7.29
2019-02-08T02:53:09.501Z,7.18
2019-02-08T02:55:35.755Z,7.06
2019-02-08T02:58:02.232Z,7.01
2019-02-08T03:00:34.954Z,6.89
2019-02-08T03:03:01.239Z,6.80
2019-02-08T03:05:27.500Z,6.79
2019-02-08T03:07:53.700Z,6.86
2019-02-08T03:10:21.273Z,6.89
2019-02-08T03:12:47.520Z,6.81
2019-02-08T03:15:16.948Z,6.83
2019-02-08T03:17:43.205Z,6.75
2019-02-08T03:20:12.510Z,6.76
2019-02-08T03:22:38.683Z,6.84
2019-02-08T03:25:08.258Z,6.97
2019-02-08T03:27:34.432Z,6.85
2019-02-08T03:30:00.771Z,6.98
2019-02-08T03:32:27.041Z,7.01
2019-02-08T03:34:53.210Z,6.99
2019-02-08T03:37:19.425Z,6.95
2019-02-08T03:39:45.692Z,6.89
2019-02-08T03:42:11.857Z,6.87
2019-02-08T03:44:38.186Z,6.82
2019-02-08T03:47:04.531Z,6.74
2019-02-08T03:49:30.694Z,6.83
2019-02-08T03:51:56.892Z,6.90
2019-02-08T03:54:23.050Z,6.91
2019-02-08T03:56:49.325Z,6.90
2019-02-08T03:59:15.521Z,7.03
2019-02-08T04:01:41.790Z,6.97
2019-02-08T04:04:13.229Z,6.85
2019-02-08T04:06:39.736Z,6.51
2019-02-08T04:09:07.319Z,6.23
2019-02-08T04:11:33.478Z,6.29
2019-02-08T04:13:59.682Z,6.29
2019-02-08T04:16:25.951Z,6.32
2019-02-08T04:18:52.119Z,6.28
2019-02-08T04:21:18.314Z,6.34
2019-02-08T04:23:44.485Z,6.16
2019-02-08T04:26:10.738Z,6.20
2019-02-08T04:28:37.045Z,6.18
2019-02-08T04:31:03.359Z,6.23
2019-02-08T04:33:29.524Z,6.11
2019-02-08T04:35:55.717Z,6.15
2019-02-08T04:38:21.883Z,6.16
2019-02-08T04:40:48.169Z,6.15
2019-02-08T04:43:14.487Z,6.15
2019-02-08T04:45:40.654Z,6.07
2019-02-08T04:48:06.814Z,6.14
2019-02-08T04:50:33.116Z,6.19
2019-02-08T04:52:59.295Z,6.09
2019-02-08T04:55:26.056Z,6.08
2019-02-08T04:57:52.360Z,6.08
2019-02-08T05:00:21.727Z,6.01
2019-02-08T05:02:47.895Z,6.04
2019-02-08T05:05:14.082Z,5.97
2019-02-08T05:07:40.351Z,6.14
2019-02-08T05:10:10.225Z,6.12
2019-02-08T05:12:36.530Z,6.20
2019-02-08T05:15:05.689Z,6.14
2019-02-08T05:17:31.847Z,6.06
2019-02-08T05:19:58.144Z,5.94
2019-02-08T05:22:24.295Z,5.92
2019-02-08T05:24:50.460Z,5.93
2019-02-08T05:27:16.779Z,5.68
2019-02-08T05:29:43.063Z,5.26
2019-02-08T05:32:09.436Z,5.25
2019-02-08T05:34:35.629Z,5.38
2019-02-08T05:37:01.791Z,5.40
2019-02-08T05:39:28.054Z,5.49
2019-02-08T05:41:54.358Z,5.69
2019-02-08T05:44:20.622Z,5.88
2019-02-08T05:46:46.894Z,6.03
2019-02-08T05:49:13.088Z,6.03
2019-02-08T05:51:39.350Z,5.94
2019-02-08T05:54:05.832Z,6.23
2019-02-08T05:56:32.038Z,6.17
2019-02-08T05:58:58.319Z,6.19
2019-02-08T06:01:24.590Z,6.19
2019-02-08T06:03:50.879Z,6.09
2019-02-08T06:06:17.162Z,6.63
2019-02-08T06:08:43.633Z,6.98
2019-02-08T06:11:09.834Z,7.11
2019-02-08T06:13:36.228Z,7.09
2019-02-08T06:16:03.020Z,7.12
2019-02-08T06:18:29.215Z,7.24
2019-02-08T06:20:55.476Z,7.01
2019-02-08T06:23:21.658Z,6.79
2019-02-08T06:25:48.063Z,6.65
2019-02-08T06:28:14.338Z,6.96
2019-02-08T06:30:40.609Z,7.12
2019-02-08T06:33:06.836Z,7.26
2019-02-08T06:35:33.011Z,7.91
2019-02-08T06:37:59.320Z,8.47
2019-02-08T06:40:28.914Z,8.91
2019-02-08T06:42:55.179Z,9.04
2019-02-08T06:45:24.044Z,9.40
2019-02-08T06:47:50.446Z,9.49
2019-02-08T06:50:19.422Z,9.47
2019-02-08T06:52:45.574Z,9.61
2019-02-08T06:55:12.264Z,9.85
2019-02-08T06:57:40.331Z,10.17
2019-02-08T07:00:14.117Z,10.16
2019-02-08T07:02:42.218Z,10.45
2019-02-08T07:05:19.508Z,10.71
2019-02-08T07:07:47.607Z,10.74
2019-02-08T07:10:18.585Z,10.64
2019-02-08T07:12:49.462Z,10.26
2019-02-08T07:15:20.579Z,10.41
2019-02-08T07:17:51.705Z,10.37
2019-02-08T07:20:19.908Z,9.86
2019-02-08T07:22:53.565Z,9.15
2019-02-08T07:25:36.662Z,10.28
2019-02-08T07:28:19.738Z,10.35
2019-02-08T07:30:50.795Z,10.20
2019-02-08T07:33:33.700Z,9.03
2019-02-08T07:36:05.058Z,9.93
2019-02-08T07:38:36.466Z,10.44
2019-02-08T07:41:06.266Z,10.26
2019-02-08T07:43:46.990Z,9.70
2019-02-08T07:46:21.896Z,9.42
2019-02-08T07:48:50.474Z,10.53
2019-02-08T07:51:24.796Z,10.71
2019-02-08T07:54:09.219Z,10.67
2019-02-08T07:56:39.881Z,9.28
2019-02-08T07:59:10.454Z,10.39
2019-02-08T08:01:39.034Z,10.96
2019-02-08T08:04:09.224Z,11.54
2019-02-08T08:06:43.856Z,11.93
2019-02-08T08:09:14.972Z,12.59
2019-02-08T08:11:46.140Z,12.62
2019-02-08T08:14:21.490Z,12.47
2019-02-08T08:17:06.383Z,12.90
2019-02-08T08:19:44.535Z,13.17
2019-02-08T08:22:28.461Z,12.70
2019-02-08T08:25:02.264Z,13.29
2019-02-08T08:27:34.144Z,13.67
2019-02-08T08:30:05.848Z,13.40
2019-02-08T08:32:36.230Z,13.77
2019-02-08T08:35:24.168Z,13.44
2019-02-08T08:37:53.961Z,13.35
2019-02-08T08:40:44.931Z,13.74
2019-02-08T08:43:33.018Z,13.62
2019-02-08T08:46:12.098Z,12.45
2019-02-08T08:48:58.571Z,11.92
2019-02-08T08:51:40.775Z,12.38
2019-02-08T08:54:26.231Z,12.91
2019-02-08T08:57:22.279Z,13.81
2019-02-08T09:00:08.795Z,13.23
2019-02-08T09:02:49.280Z,13.55
2019-02-08T09:05:34.524Z,12.89
2019-02-08T09:08:33.425Z,13.34
2019-02-08T09:11:30.522Z,13.11
2019-02-08T09:14:18.520Z,13.79
2019-02-08T09:17:08.043Z,13.84
2019-02-08T09:19:44.036Z,14.51
2019-02-08T09:22:35.062Z,14.92
2019-02-08T09:25:29.313Z,15.24
2019-02-08T09:28:08.112Z,15.44
2019-02-08T09:31:09.793Z,15.39
2019-02-08T09:34:00.835Z,13.47
2019-02-08T09:36:47.814Z,14.35
2019-02-08T09:39:26.213Z,15.81
2019-02-08T09:42:18.614Z,16.21
2019-02-08T09:44:57.573Z,15.11
2019-02-08T09:47:45.503Z,13.81
2019-02-08T09:50:44.262Z,12.66
2019-02-08T09:53:30.540Z,12.45
2019-02-08T09:56:27.668Z,12.31
2019-02-08T09:59:13.972Z,11.74
2019-02-08T10:02:17.468Z,11.38
2019-02-08T10:04:50.033Z,10.07
2019-02-08T10:07:19.787Z,10.37
2019-02-08T10:10:10.762Z,10.10
2019-02-08T10:12:55.622Z,10.60
2019-02-08T10:15:59.035Z,10.52
2019-02-08T10:18:37.956Z,10.35
2019-02-08T10:21:27.813Z,11.14
2019-02-08T10:24:15.918Z,10.80
2019-02-08T10:27:00.638Z,11.08
2019-02-08T10:30:02.450Z,11.72
2019-02-08T10:32:52.075Z,12.19
2019-02-08T10:35:36.615Z,12.68
2019-02-08T10:38:29.012Z,12.08
2019-02-08T10:41:07.750Z,13.11
2019-02-08T10:43:54.237Z,12.84
2019-02-08T10:46:39.232Z,12.49
2019-02-08T10:49:17.962Z,12.78
2019-02-08T10:51:59.771Z,12.47
2019-02-08T10:54:44.871Z,13.66
2019-02-08T10:57:27.330Z,12.54
2019-02-08T11:00:00.044Z,13.44
2019-02-08T11:03:03.639Z,13.60
2019-02-08T11:05:39.349Z,13.69
2019-02-08T11:08:32.209Z,12.59
2019-02-08T11:11:23.011Z,14.00
2019-02-08T11:14:12.903Z,15.41
2019-02-08T11:17:19.222Z,14.05
2019-02-08T11:19:50.891Z,14.49
2019-02-08T11:22:17.152Z,14.19
2019-02-08T11:24:43.498Z,14.71
2019-02-08T11:27:10.048Z,13.43
2019-02-08T11:29:38.366Z,14.03
2019-02-08T11:32:08.258Z,14.01
2019-02-08T11:34:34.425Z,13.25
2019-02-08T11:37:07.211Z,13.59
2019-02-08T11:39:28.948Z,13.68
2019-02-08T11:41:55.154Z,12.28
2019-02-08T11:44:21.642Z,14.43
2019-02-08T11:46:47.940Z,14.53
2019-02-08T11:49:14.430Z,15.16
2019-02-08T11:51:41.120Z,16.01
2019-02-08T11:54:07.416Z,15.98
2019-02-08T11:56:34.023Z,12.68
2019-02-08T11:59:00.494Z,13.20
2019-02-08T12:01:28.601Z,13.52
2019-02-08T12:03:54.776Z,13.46
2019-02-08T12:06:21.037Z,13.73
2019-02-08T12:08:47.351Z,14.53
2019-02-08T12:11:13.492Z,13.18
2019-02-08T12:13:39.670Z,13.65
2019-02-08T12:16:05.976Z,12.97
2019-02-08T12:18:32.226Z,12.38
2019-02-08T12:20:58.510Z,13.34
2019-02-08T12:23:24.806Z,13.99
2019-02-08T12:25:51.073Z,14.70
2019-02-08T12:28:17.534Z,15.12
2019-02-08T12:30:44.722Z,15.87
2019-02-08T12:33:11.375Z,16.23
2019-02-08T12:35:37.640Z,16.34
2019-02-08T12:38:04.051Z,16.06
2019-02-08T12:40:30.366Z,15.44
2019-02-08T12:42:56.652Z,15.44
2019-02-08T12:45:22.854Z,13.89
2019-02-08T12:47:49.008Z,13.56
2019-02-08T12:50:19.892Z,12.63
2019-02-08T12:52:46.098Z,12.50
2019-02-08T12:55:14.669Z,13.48
2019-02-08T12:57:40.830Z,14.48
2019-02-08T13:00:16.924Z,14.37
2019-02-08T13:02:43.190Z,13.70
2019-02-08T13:05:11.150Z,12.82
2019-02-08T13:07:37.359Z,12.36
2019-02-08T13:10:09.960Z,11.96
2019-02-08T13:12:36.234Z,12.48
2019-02-08T13:15:05.916Z,13.39
2019-02-08T13:17:32.089Z,13.84
2019-02-08T13:19:58.350Z,14.21
2019-02-08T13:22:24.557Z,13.73
2019-02-08T13:24:50.730Z,13.71
2019-02-08T13:27:16.998Z,12.87
2019-02-08T13:29:43.204Z,12.23
2019-02-08T13:32:09.390Z,11.95
2019-02-08T13:34:35.540Z,11.42
2019-02-08T13:37:02.211Z,12.29
2019-02-08T13:39:28.473Z,12.89
2019-02-08T13:41:54.699Z,12.45
2019-02-08T13:44:20.991Z,12.33
2019-02-08T13:46:47.263Z,12.05
2019-02-08T13:49:13.404Z,12.37
2019-02-08T13:51:39.597Z,11.32
2019-02-08T13:54:05.774Z,10.37
2019-02-08T13:56:32.063Z,11.15
2019-02-08T13:58:58.352Z,10.88
2019-02-08T14:01:24.611Z,10.91
2019-02-08T14:03:50.782Z,11.61
2019-02-08T14:06:16.987Z,11.37
2019-02-08T14:08:43.161Z,11.31
2019-02-08T14:11:09.314Z,11.55
2019-02-08T14:13:40.497Z,11.30
2019-02-08T14:16:03.946Z,11.50
2019-02-08T14:18:30.099Z,11.13
2019-02-08T14:20:56.290Z,11.52
2019-02-08T14:23:24.275Z,11.29
2019-02-08T14:25:50.596Z,11.68
2019-02-08T14:28:16.746Z,11.83
2019-02-08T14:30:43.321Z,11.38
2019-02-08T14:33:12.230Z,11.37
2019-02-08T14:35:38.626Z,11.68
2019-02-08T14:38:08.495Z,11.89
2019-02-08T14:40:35.125Z,10.76
2019-02-08T14:43:01.331Z,10.68
2019-02-08T14:45:27.800Z,10.80
2019-02-08T14:47:54.103Z,10.22
2019-02-08T14:50:23.994Z,11.84
2019-02-08T14:52:50.562Z,11.22
2019-02-08T14:55:16.747Z,11.24
2019-02-08T14:57:44.132Z,10.81
2019-02-08T15:00:19.453Z,11.54
2019-02-08T15:02:45.702Z,11.44
2019-02-08T15:05:14.216Z,11.08
2019-02-08T15:07:40.480Z,10.36
2019-02-08T15:10:25.624Z,10.84
2019-02-08T15:12:51.901Z,10.26
2019-02-08T15:15:18.458Z,10.75
2019-02-08T15:17:44.640Z,11.03
2019-02-08T15:20:14.414Z,10.34
2019-02-08T15:22:40.568Z,10.43
2019-02-08T15:25:08.281Z,10.27
2019-02-08T15:27:34.747Z,10.36
2019-02-08T15:30:00.908Z,10.47
2019-02-08T15:32:27.107Z,10.47
2019-02-08T15:34:53.282Z,10.31
2019-02-08T15:37:19.640Z,10.44
2019-02-08T15:39:45.837Z,10.61
2019-02-08T15:42:12.000Z,10.72
2019-02-08T15:44:38.312Z,10.59
2019-02-08T15:47:04.722Z,10.47
2019-02-08T15:49:30.881Z,10.46
2019-02-08T15:51:57.151Z,10.38
2019-02-08T15:54:23.446Z,10.34
2019-02-08T15:56:49.605Z,10.30
2019-02-08T15:59:15.866Z,10.53
2019-02-08T16:01:42.301Z,10.80
2019-02-08T16:04:08.551Z,10.57
2019-02-08T16:06:34.827Z,10.60
2019-02-08T16:09:01.029Z,10.89
2019-02-08T16:11:27.180Z,10.78
2019-02-08T16:13:53.439Z,10.52
2019-02-08T16:16:19.645Z,10.68
2019-02-08T16:18:45.911Z,10.59
2019-02-08T16:21:12.370Z,10.88
2019-02-08T16:23:38.560Z,10.68
2019-02-08T16:26:04.825Z,10.83
2019-02-08T16:28:31.090Z,10.76
2019-02-08T16:30:57.383Z,11.03
2019-02-08T16:33:23.669Z,11.23
2019-02-08T16:35:57.805Z,11.21
2019-02-08T16:38:23.984Z,11.34
2019-02-08T16:40:50.263Z,11.34
2019-02-08T16:43:16.424Z,11.41
2019-02-08T16:45:42.692Z,11.48
2019-02-08T16:48:11.567Z,11.38
2019-02-08T16:50:38.141Z,11.28
2019-02-08T16:53:06.299Z,10.94
2019-02-08T16:55:34.357Z,10.60
2019-02-08T16:58:00.522Z,10.62
2019-02-08T17:00:29.816Z,10.51
2019-02-08T17:02:58.685Z,10.43
2019-02-08T17:05:26.353Z,10.69
2019-02-08T17:07:52.548Z,10.95
2019-02-08T17:10:18.819Z,11.02
2019-02-08T17:12:45.072Z,10.81
2019-02-08T17:15:14.885Z,10.66
2019-02-08T17:17:41.191Z,10.30
2019-02-08T17:20:16.844Z,10.38
2019-02-08T17:22:43.024Z,10.35
2019-02-08T17:25:09.393Z,10.34
2019-02-08T17:27:35.649Z,10.51
2019-02-08T17:30:03.633Z,10.64
2019-02-08T17:32:29.805Z,10.68
2019-02-08T17:34:55.973Z,10.59
2019-02-08T17:37:22.277Z,10.42
2019-02-08T17:39:48.541Z,10.40
2019-02-08T17:42:14.700Z,10.49
2019-02-08T17:44:40.999Z,10.60
2019-02-08T17:47:07.342Z,10.55
2019-02-08T17:49:33.478Z,10.53
2019-02-08T17:51:59.779Z,10.60
2019-02-08T17:54:26.052Z,10.65
2019-02-08T17:56:52.213Z,10.67
2019-02-08T17:59:18.906Z,10.82
2019-02-08T18:01:45.171Z,10.77
2019-02-08T18:04:11.320Z,10.49
2019-02-08T18:06:37.648Z,10.40
2019-02-08T18:09:06.012Z,10.52
2019-02-08T18:11:32.277Z,10.56
2019-02-08T18:13:58.469Z,10.53
2019-02-08T18:16:24.633Z,10.53
2019-02-08T18:18:50.802Z,10.56
2019-02-08T18:21:16.993Z,10.70
2019-02-08T18:23:43.265Z,10.83
2019-02-08T18:26:09.525Z,10.85
2019-02-08T18:28:35.831Z,10.88
2019-02-08T18:31:02.285Z,10.76
2019-02-08T18:33:28.446Z,10.80
2019-02-08T18:35:54.644Z,10.81
2019-02-08T18:38:20.802Z,10.75
2019-02-08T18:40:47.069Z,10.53
2019-02-08T18:43:13.427Z,10.57
2019-02-08T18:45:39.592Z,10.82
2019-02-08T18:48:06.310Z,10.84
2019-02-08T18:50:38.841Z,10.73
2019-02-08T18:53:05.930Z,10.65
2019-02-08T18:55:32.180Z,10.80
2019-02-08T18:57:58.383Z,10.74
2019-02-08T19:00:27.777Z,10.68
2019-02-08T19:02:53.957Z,10.53
2019-02-08T19:05:20.168Z,10.40
2019-02-08T19:07:46.458Z,10.31
2019-02-08T19:10:15.358Z,10.22
2019-02-08T19:12:41.568Z,10.13
2019-02-08T19:15:11.058Z,10.16
2019-02-08T19:17:37.222Z,10.31
2019-02-08T19:20:06.729Z,10.40
2019-02-08T19:22:32.893Z,10.60
2019-02-08T19:24:59.061Z,10.52
2019-02-08T19:27:25.256Z,10.58
2019-02-08T19:29:51.414Z,10.60
2019-02-08T19:32:17.568Z,10.58
2019-02-08T19:34:43.772Z,10.58
2019-02-08T19:37:10.040Z,10.53
2019-02-08T19:39:36.299Z,10.52
2019-02-08T19:42:02.924Z,10.59
2019-02-08T19:44:29.099Z,10.72
2019-02-08T19:46:55.387Z,10.72
2019-02-08T19:49:24.471Z,10.69
2019-02-08T19:51:50.765Z,10.79
2019-02-08T19:54:17.034Z,10.82
2019-02-08T19:56:43.347Z,10.76
2019-02-08T19:59:09.617Z,10.68
2019-02-08T20:01:35.890Z,10.79
2019-02-08T20:04:03.884Z,10.75
2019-02-08T20:06:30.165Z,10.77
2019-02-08T20:08:56.433Z,10.70
2019-02-08T20:11:22.770Z,10.86
2019-02-08T20:13:49.045Z,10.72
2019-02-08T20:16:15.208Z,10.73
2019-02-08T20:18:41.405Z,10.59
2019-02-08T20:21:07.712Z,10.36
2019-02-08T20:23:33.855Z,10.34
2019-02-08T20:26:02.002Z,9.87
2019-02-08T20:28:28.631Z,10.04
2019-02-08T20:30:54.896Z,10.24
2019-02-08T20:33:22.891Z,10.25
2019-02-08T20:35:51.481Z,10.35
2019-02-08T20:38:17.654Z,10.38
2019-02-08T20:40:48.600Z,10.38
2019-02-08T20:43:14.869Z,10.39
2019-02-08T20:45:41.512Z,10.25
2019-02-08T20:48:16.620Z,9.97
2019-02-08T20:50:43.036Z,9.94
2019-02-08T20:53:09.223Z,10.05
2019-02-08T20:55:36.189Z,10.05
2019-02-08T20:58:05.115Z,10.00
2019-02-08T21:00:35.648Z,9.96
2019-02-08T21:03:05.875Z,9.86
2019-02-08T21:05:32.402Z,9.83
2019-02-08T21:07:59.359Z,9.82
2019-02-08T21:10:26.454Z,9.75
2019-02-08T21:12:55.103Z,9.85
2019-02-08T21:15:22.507Z,9.81
2019-02-08T21:17:48.697Z,9.82
2019-02-08T21:20:16.371Z,9.80
2019-02-08T21:22:42.536Z,9.54
2019-02-08T21:25:18.336Z,9.22
2019-02-08T21:27:44.612Z,9.41
2019-02-08T21:30:14.081Z,9.76
2019-02-08T21:32:40.372Z,9.94
2019-02-08T21:35:09.237Z,9.97
2019-02-08T21:37:35.866Z,10.08
2019-02-08T21:40:04.468Z,10.13
2019-02-08T21:42:30.726Z,10.17
2019-02-08T21:44:56.888Z,10.31
2019-02-08T21:47:23.196Z,10.27
2019-02-08T21:49:49.357Z,10.28
2019-02-08T21:52:15.568Z,10.18
2019-02-08T21:54:41.869Z,10.18
2019-02-08T21:57:08.140Z,10.30
2019-02-08T21:59:34.299Z,10.32
2019-02-08T22:02:00.617Z,10.43
2019-02-08T22:04:26.784Z,10.49
2019-02-08T22:06:52.953Z,10.30
2019-02-08T22:09:19.262Z,9.59
2019-02-08T22:11:46.476Z,9.71
2019-02-08T22:14:12.632Z,9.80
2019-02-08T22:16:38.832Z,10.05
2019-02-08T22:19:05.203Z,9.94
2019-02-08T22:21:31.711Z,9.76
2019-02-08T22:23:57.926Z,9.56
2019-02-08T22:26:24.222Z,9.64
2019-02-08T22:28:50.438Z,9.70
2019-02-08T22:31:16.606Z,9.70
2019-02-08T22:33:42.859Z,9.78
2019-02-08T22:36:09.016Z,9.71
2019-02-08T22:38:35.198Z,9.75
2019-02-08T22:41:01.463Z,9.84
2019-02-08T22:43:27.644Z,9.89
2019-02-08T22:45:53.952Z,9.86
2019-02-08T22:48:20.118Z,9.87
2019-02-08T22:50:46.882Z,9.83
2019-02-08T22:53:13.227Z,9.70
2019-02-08T22:55:39.395Z,9.69
2019-02-08T22:58:07.361Z,9.72
2019-02-08T23:00:40.310Z,9.63
2019-02-08T23:03:08.275Z,9.39
2019-02-08T23:05:34.433Z,9.37
2019-02-08T23:08:00.628Z,9.25
2019-02-08T23:10:27.094Z,9.25
2019-02-08T23:12:53.262Z,9.19
2019-02-08T23:15:19.457Z,9.16
2019-02-08T23:17:45.624Z,8.99
2019-02-08T23:20:11.992Z,8.79
2019-02-08T23:22:38.192Z,8.55
2019-02-08T23:25:05.259Z,8.50
2019-02-08T23:27:31.528Z,8.28
2019-02-08T23:29:57.829Z,8.30
2019-02-08T23:32:23.988Z,8.42
2019-02-08T23:34:50.266Z,8.40
2019-02-08T23:37:16.571Z,8.48
2019-02-08T23:39:42.734Z,8.47
2019-02-08T23:42:09.007Z,8.33
2019-02-08T23:44:35.317Z,8.32
2019-02-08T23:47:01.493Z,8.22
2019-02-08T23:49:27.765Z,8.23
2019-02-08T23:51:54.053Z,8.21
2019-02-08T23:54:20.431Z,8.23
2019-02-08T23:56:46.703Z,8.29
2019-02-08T23:59:12.998Z,8.28
